Terminal Aerodrome Forecast
Issued by NWS Grand Junction, CO

Home | Current Version | Previous Version | Text Only | Print | Product List | Glossary On
Versions: 1 2 3 4 5 6 7 8 9 10 11 12 13 14 15 16 17 18 19 20
000
FTUS45 KGJT 201728
TAFGJT
TAF
KGJT 201728Z 2018/2118 13006KT P6SM SCT110 BKN200
     FM201900 32004KT P6SM SCT100 BKN150
     FM210200 06005KT P6SM SCT100
     FM210600 11007KT P6SM SCT200=

USA.gov is the U.S. government's official web portal to all federal, state and local government web resources and services.